Aurora, New York
Current Conditions -  °F | °C
As of 3:53 AM on Wednesday 22 Oct 2014 (Local Time) from KPEO Reporting Station
Haze Haze  
Wind Chill: 42°   Ceiling: 300
Heat Index: 46°   Visibility: 5mi
Dew Point: 45°   Wind: 7mph
Humidity: 96%   Direction: 350°N
Pressure: 30.05"   Gusts: NA
Location:  42.75°N, 76.7°W
Report Text: KPEO 220753Z AUTO 35006KT 5SM BR OVC003 08/07 A3005 RMK AO2 RAE11 SLP177 P0000 T00780072
Loading
Personal Weather Stations






























Interactive Weather Map
Tropical Storm Tracking
New forecast layout! Learn more

10-Day Weather Forecast

Advertisements
Track Severe Weather on mobile